Time,TemperatureF,DewpointF,PressureIn,WindDirection,WindDirectionDegrees,WindSpeedMPH,WindSpeedGustMPH,Humidity,HourlyPrecipIn,Conditions,Clouds,dailyrainin,SoftwareType,DateUTC
2013-01-06 00:02:00,48.6,36.3,29.79,North,0,3.7,3.7,62,0.00,,SCT,0.00,WUHU21623XXSP,2013-01-05 22:02:00,
2013-01-06 00:07:00,48.2,35.9,29.79,North,0,0.0,4.0,62,0.00,,SCT,0.00,WUHU21623XXSP,2013-01-05 22:07:00,
2013-01-06 00:28:00,47.8,35.1,29.78,NNE,23,0.0,0.0,61,0.00,,OVC,0.00,WUHU21623XXSP,2013-01-05 22:28:00,
2013-01-06 01:28:00,46.8,36.1,29.76,NE,45,0.0,0.0,66,0.00,,OVC,0.00,WUHU21623XXSP,2013-01-05 23:28:00,
2013-01-06 02:28:00,48.0,36.9,29.75,NNE,23,0.0,0.0,65,0.00,,OVC,0.00,WUHU21623XXSP,2013-01-06 00:28:00,
2013-01-06 03:28:00,49.1,37.6,29.74,NE,45,0.0,0.0,64,0.00,,OVC,0.00,WUHU21623XXSP,2013-01-06 01:28:00,
2013-01-06 04:28:00,50.2,37.8,29.73,NNW,338,0.0,0.0,62,0.00,,OVC,0.00,WUHU21623XXSP,2013-01-06 02:28:00,
2013-01-06 05:28:00,52.5,34.9,29.71,NNE,23,5.2,5.2,51,0.00,,OVC,0.00,WUHU21623XXSP,2013-01-06 03:28:00,
2013-01-06 06:28:00,51.1,35.5,29.74,North,0,18.3,18.3,55,0.00,,OVC,0.00,WUHU21623XXSP,2013-01-06 04:28:00,
2013-01-06 07:28:00,49.3,34.8,29.75,NNE,23,0.0,0.0,57,0.00,,OVC,0.00,WUHU21623XXSP,2013-01-06 05:28:00,
2013-01-06 08:23:00,50.0,35.0,29.76,NW,315,12.1,12.1,56,0.00,,OVC,0.00,WUHU21623XXSP,2013-01-06 06:23:00,
2013-01-06 08:28:00,50.2,35.2,29.77,NW,315,0.0,14.7,56,0.00,,OVC,0.00,WUHU21623XXSP,2013-01-06 06:28:00,
2013-01-06 08:33:00,49.8,35.2,29.77,North,0,9.1,15.7,57,0.00,,OVC,0.00,WUHU21623XXSP,2013-01-06 06:33:00,
2013-01-06 08:38:00,49.8,35.2,29.78,NNW,337,5.2,17.5,57,0.00,,OVC,0.00,WUHU21623XXSP,2013-01-06 06:38:00,
2013-01-06 08:43:00,49.5,35.0,29.78,NNE,22,6.2,20.1,57,0.00,,OVC,0.00,WUHU21623XXSP,2013-01-06 06:43:00,
2013-01-06 08:48:00,49.6,35.1,29.77,North,0,8.1,27.1,57,0.00,,OVC,0.00,WUHU21623XXSP,2013-01-06 06:48:00,
2013-01-06 08:53:00,49.6,35.1,29.78,WNW,292,11.1,29.0,57,0.00,,OVC,0.00,WUHU21623XXSP,2013-01-06 06:53:00,
2013-01-06 08:58:00,49.8,35.2,29.78,West,270,6.9,29.0,57,0.00,,OVC,0.00,WUHU21623XXSP,2013-01-06 06:58:00,
2013-01-06 09:03:00,49.6,35.1,29.78,North,0,0.0,14.3,57,0.00,,OVC,0.00,WUHU21623XXSP,2013-01-06 07:03:00,
2013-01-06 09:08:00,49.6,35.1,29.78,WNW,292,6.2,13.3,57,0.00,,OVC,0.00,WUHU21623XXSP,2013-01-06 07:08:00,
2013-01-06 09:13:00,49.6,35.5,29.78,North,0,2.2,14.5,58,0.00,,OVC,0.00,WUHU21623XXSP,2013-01-06 07:13:00,
2013-01-06 09:18:00,49.6,35.5,29.78,NW,315,11.6,14.5,58,0.00,,OVC,0.00,WUHU21623XXSP,2013-01-06 07:18:00,
2013-01-06 09:23:00,49.5,35.4,29.79,North,0,6.6,15.0,58,0.00,,OVC,0.00,WUHU21623XXSP,2013-01-06 07:23:00,
2013-01-06 09:28:00,49.5,35.4,29.78,WNW,292,0.0,15.0,58,0.00,,OVC,0.00,WUHU21623XXSP,2013-01-06 07:28:00,
2013-01-06 09:33:00,49.5,35.4,29.78,North,0,10.8,14.7,58,0.00,,OVC,0.00,WUHU21623XXSP,2013-01-06 07:33:00,
2013-01-06 09:38:00,50.2,35.6,29.79,NNW,337,4.9,19.7,57,0.00,,OVC,0.00,WUHU21623XXSP,2013-01-06 07:38:00,
2013-01-06 09:43:00,49.6,34.6,29.79,NE,45,18.5,35.0,56,0.00,,OVC,0.00,WUHU21623XXSP,2013-01-06 07:43:00,
2013-01-06 09:48:00,50.0,35.0,29.79,ENE,67,6.9,35.0,56,0.00,,OVC,0.00,WUHU21623XXSP,2013-01-06 07:48:00,
2013-01-06 09:53:00,49.6,35.1,29.80,West,270,6.6,18.9,57,0.00,,OVC,0.00,WUHU21623XXSP,2013-01-06 07:53:00,
2013-01-06 09:58:00,49.6,35.1,29.80,NE,45,6.9,15.7,57,0.00,,OVC,0.00,WUHU21623XXSP,2013-01-06 07:58:00,
2013-01-06 10:03:00,49.5,35.0,29.82,North,0,9.1,18.7,57,0.00,,OVC,0.00,WUHU21623XXSP,2013-01-06 08:03:00,
2013-01-06 10:08:00,49.1,35.5,29.81,North,0,10.6,19.1,59,0.00,,OVC,0.00,WUHU21623XXSP,2013-01-06 08:08:00,
2013-01-06 10:13:00,47.7,35.8,29.82,NE,45,19.5,19.5,63,0.00,,OVC,0.00,WUHU21623XXSP,2013-01-06 08:13:00,
2013-01-06 10:18:00,46.6,36.3,29.82,NE,45,3.2,19.5,67,0.00,,OVC,0.00,WUHU21623XXSP,2013-01-06 08:18:00,
2013-01-06 10:23:00,46.2,36.7,29.82,NE,45,9.8,15.0,69,0.00,,OVC,0.00,WUHU21623XXSP,2013-01-06 08:23:00,
2013-01-06 10:28:00,46.2,36.7,29.83,NE,45,6.9,13.1,69,0.00,,OVC,0.00,WUHU21623XXSP,2013-01-06 08:28:00,
2013-01-06 10:33:00,46.4,36.9,29.82,NNE,22,10.6,13.8,69,0.00,,OVC,0.00,WUHU21623XXSP,2013-01-06 08:33:00,
2013-01-06 10:38:00,46.4,36.9,29.82,NE,45,6.6,14.3,69,0.00,,OVC,0.00,WUHU21623XXSP,2013-01-06 08:38:00,
2013-01-06 10:43:00,46.6,37.1,29.83,North,0,6.6,14.3,69,0.00,,OVC,0.00,WUHU21623XXSP,2013-01-06 08:43:00,
2013-01-06 10:48:00,46.6,37.1,29.83,North,0,10.6,14.1,69,0.00,,OVC,0.00,WUHU21623XXSP,2013-01-06 08:48:00,
2013-01-06 10:53:00,46.8,37.3,29.83,NW,315,0.0,11.3,69,0.00,,OVC,0.00,WUHU21623XXSP,2013-01-06 08:53:00,
2013-01-06 10:58:00,46.8,37.3,29.83,ENE,67,0.0,11.1,69,0.00,,OVC,0.00,WUHU21623XXSP,2013-01-06 08:58:00,
2013-01-06 11:03:00,46.8,37.3,29.83,NE,45,2.0,10.3,69,0.00,,OVC,0.00,WUHU21623XXSP,2013-01-06 09:03:00,
2013-01-06 11:08:00,46.6,37.8,29.83,NNE,22,2.4,10.3,71,0.00,,OVC,0.00,WUHU21623XXSP,2013-01-06 09:08:00,
2013-01-06 11:13:00,46.8,38.0,29.83,North,0,4.2,9.1,71,0.00,,OVC,0.00,WUHU21623XXSP,2013-01-06 09:13:00,
2013-01-06 11:18:00,46.8,37.6,29.83,North,0,2.0,8.4,70,0.00,,OVC,0.00,WUHU21623XXSP,2013-01-06 09:18:00,
2013-01-06 11:23:00,46.9,37.7,29.83,NNW,337,1.4,5.4,70,0.00,,OVC,0.00,WUHU21623XXSP,2013-01-06 09:23:00,
2013-01-06 11:28:00,47.1,38.6,29.83,NNE,22,5.4,5.4,72,0.00,,OVC,0.00,WUHU21623XXSP,2013-01-06 09:28:00,
2013-01-06 11:33:00,47.1,39.0,29.83,ENE,67,0.0,5.4,73,0.00,,OVC,0.00,WUHU21623XXSP,2013-01-06 09:33:00,
2013-01-06 11:38:00,46.9,38.8,29.83,NW,315,4.2,6.9,73,0.00,,OVC,0.00,WUHU21623XXSP,2013-01-06 09:38:00,
2013-01-06 11:43:00,46.9,38.4,29.83,West,270,0.0,8.6,72,0.00,,OVC,0.00,WUHU21623XXSP,2013-01-06 09:43:00,
2013-01-06 11:48:00,46.6,37.8,29.83,NW,315,8.4,12.3,71,0.00,,OVC,0.00,WUHU21623XXSP,2013-01-06 09:48:00,
2013-01-06 11:53:00,46.6,37.4,29.83,ENE,67,0.0,12.3,70,0.00,,OVC,0.00,WUHU21623XXSP,2013-01-06 09:53:00,
2013-01-06 11:58:00,46.4,37.9,29.83,NE,45,5.2,10.8,72,0.00,,OVC,0.00,WUHU21623XXSP,2013-01-06 09:58:00,
2013-01-06 12:03:00,46.6,38.5,29.83,NNW,337,0.0,5.6,73,0.00,,OVC,0.00,WUHU21623XXSP,2013-01-06 10:03:00,
2013-01-06 12:08:00,47.1,39.0,29.82,North,0,0.0,4.2,73,0.00,,OVC,0.00,WUHU21623XXSP,2013-01-06 10:08:00,
2013-01-06 12:13:00,47.8,38.6,29.82,North,0,1.4,9.4,70,0.00,,OVC,0.00,WUHU21623XXSP,2013-01-06 10:13:00,
2013-01-06 12:18:00,48.4,37.7,29.82,NNE,22,2.2,11.6,66,0.00,,OVC,0.00,WUHU21623XXSP,2013-01-06 10:18:00,
2013-01-06 12:23:00,49.1,37.9,29.82,NNE,22,3.7,11.6,65,0.00,,OVC,0.00,WUHU21623XXSP,2013-01-06 10:23:00,
2013-01-06 12:28:00,50.0,37.2,29.81,ENE,67,0.0,15.7,61,0.00,,OVC,0.00,WUHU21623XXSP,2013-01-06 10:28:00,
2013-01-06 12:33:00,50.5,37.2,29.82,NNE,22,1.4,15.7,60,0.00,,OVC,0.00,WUHU21623XXSP,2013-01-06 10:33:00,
2013-01-06 12:38:00,50.7,36.5,29.81,NNE,22,6.4,11.3,58,0.00,,OVC,0.00,WUHU21623XXSP,2013-01-06 10:38:00,
2013-01-06 12:43:00,50.7,36.1,29.82,NNE,22,10.3,13.3,57,0.00,,OVC,0.00,WUHU21623XXSP,2013-01-06 10:43:00,
2013-01-06 12:48:00,50.4,35.8,29.82,North,0,10.6,13.3,57,0.00,,OVC,0.00,WUHU21623XXSP,2013-01-06 10:48:00,
2013-01-06 12:53:00,50.2,35.6,29.82,NNW,337,7.4,12.5,57,0.00,,OVC,0.00,WUHU21623XXSP,2013-01-06 10:53:00,
2013-01-06 12:58:00,49.8,35.2,29.81,WNW,292,0.0,12.5,57,0.00,,OVC,0.00,WUHU21623XXSP,2013-01-06 10:58:00,
2013-01-06 13:03:00,49.1,34.6,29.81,North,0,0.0,10.6,57,0.00,,OVC,0.00,WUHU21623XXSP,2013-01-06 11:03:00,
2013-01-06 13:08:00,49.5,35.8,29.81,WNW,292,3.4,7.6,59,0.00,,OVC,0.00,WUHU21623XXSP,2013-01-06 11:08:00,
2013-01-06 13:13:00,49.5,35.4,29.81,ENE,67,0.0,10.1,58,0.00,,OVC,0.00,WUHU21623XXSP,2013-01-06 11:13:00,
2013-01-06 13:18:00,49.6,35.5,29.81,North,0,5.4,11.3,58,0.00,,OVC,0.00,WUHU21623XXSP,2013-01-06 11:18:00,
2013-01-06 13:23:00,49.5,34.5,29.81,NE,45,6.2,15.3,56,0.00,,OVC,0.00,WUHU21623XXSP,2013-01-06 11:23:00,
2013-01-06 13:28:00,49.5,34.5,29.81,NW,315,11.1,15.3,56,0.00,,OVC,0.00,WUHU21623XXSP,2013-01-06 11:28:00,
2013-01-06 13:33:00,49.1,34.1,29.81,North,0,0.0,18.9,56,0.00,,OVC,0.00,WUHU21623XXSP,2013-01-06 11:33:00,
2013-01-06 13:38:00,49.3,34.8,29.81,North,0,8.9,18.9,57,0.00,,OVC,0.00,WUHU21623XXSP,2013-01-06 11:38:00,
2013-01-06 13:43:00,49.5,35.0,29.81,NNE,22,1.4,14.5,57,0.00,,OVC,0.00,WUHU21623XXSP,2013-01-06 11:43:00,
2013-01-06 13:48:00,50.2,35.2,29.81,NW,315,10.1,12.1,56,0.00,,OVC,0.00,WUHU21623XXSP,2013-01-06 11:48:00,
2013-01-06 13:53:00,49.5,34.0,29.81,NNE,22,4.4,14.5,55,0.00,,OVC,0.00,WUHU21623XXSP,2013-01-06 11:53:00,
2013-01-06 13:58:00,49.5,34.5,29.80,NW,315,0.0,14.5,56,0.00,,OVC,0.00,WUHU21623XXSP,2013-01-06 11:58:00,
2013-01-06 14:03:00,49.1,34.1,29.80,ENE,67,0.0,9.4,56,0.00,,OVC,0.00,WUHU21623XXSP,2013-01-06 12:03:00,
2013-01-06 14:08:00,49.5,34.5,29.81,NE,45,0.0,7.4,56,0.00,,OVC,0.00,WUHU21623XXSP,2013-01-06 12:08:00,
2013-01-06 14:13:00,49.6,34.1,29.80,SE,135,1.8,15.3,55,0.00,,OVC,0.00,WUHU21623XXSP,2013-01-06 12:13:00,
2013-01-06 14:18:00,50.2,34.7,29.80,NE,45,0.0,15.3,55,0.00,,OVC,0.00,WUHU21623XXSP,2013-01-06 12:18:00,
2013-01-06 14:23:00,50.2,34.2,29.80,SSW,202,2.2,16.3,54,0.00,,OVC,0.00,WUHU21623XXSP,2013-01-06 12:23:00,
2013-01-06 14:28:00,50.4,34.9,29.81,SSW,202,7.4,16.3,55,0.00,,OVC,0.00,WUHU21623XXSP,2013-01-06 12:28:00,
2013-01-06 14:33:00,50.2,34.2,29.82,NE,45,0.0,11.3,54,0.00,,OVC,0.00,WUHU21623XXSP,2013-01-06 12:33:00,
2013-01-06 14:38:00,49.5,34.0,29.82,North,0,6.9,11.3,55,0.00,,OVC,0.00,WUHU21623XXSP,2013-01-06 12:38:00,
2013-01-06 14:43:00,49.6,34.1,29.82,North,0,0.0,11.3,55,0.00,,OVC,0.00,WUHU21623XXSP,2013-01-06 12:43:00,
2013-01-06 14:48:00,49.6,34.1,29.82,North,0,7.2,7.2,55,0.00,,OVC,0.00,WUHU21623XXSP,2013-01-06 12:48:00,
2013-01-06 14:53:00,49.5,34.0,29.82,East,90,3.2,7.6,55,0.00,,OVC,0.00,WUHU21623XXSP,2013-01-06 12:53:00,
2013-01-06 14:58:00,49.5,34.5,29.82,NW,315,13.3,13.3,56,0.00,,OVC,0.00,WUHU21623XXSP,2013-01-06 12:58:00,
2013-01-06 15:03:00,49.1,33.7,29.83,WNW,292,1.8,14.7,55,0.00,,OVC,0.00,WUHU21623XXSP,2013-01-06 13:03:00,
2013-01-06 15:08:00,48.9,33.9,29.83,North,0,0.0,14.7,56,0.00,,OVC,0.00,WUHU21623XXSP,2013-01-06 13:08:00,
2013-01-06 15:13:00,48.6,33.2,29.83,West,270,0.0,10.1,55,0.00,,OVC,0.00,WUHU21623XXSP,2013-01-06 13:13:00,
2013-01-06 15:18:00,48.6,34.1,29.83,WSW,247,0.0,10.1,57,0.00,,OVC,0.00,WUHU21623XXSP,2013-01-06 13:18:00,
2013-01-06 15:23:00,48.6,34.1,29.82,WNW,292,0.0,9.6,57,0.00,,OVC,0.00,WUHU21623XXSP,2013-01-06 13:23:00,
2013-01-06 15:28:00,48.9,34.8,29.83,NNW,337,2.2,10.1,58,0.00,,OVC,0.00,WUHU21623XXSP,2013-01-06 13:28:00,
2013-01-06 15:33:00,48.6,34.1,29.83,NNE,22,2.8,11.1,57,0.00,,OVC,0.00,WUHU21623XXSP,2013-01-06 13:33:00,
2013-01-06 15:38:00,48.6,34.6,29.83,WNW,292,3.2,11.1,58,0.00,,OVC,0.00,WUHU21623XXSP,2013-01-06 13:38:00,
2013-01-06 15:43:00,48.6,34.6,29.83,South,180,0.0,11.8,58,0.00,,OVC,0.00,WUHU21623XXSP,2013-01-06 13:43:00,
2013-01-06 15:48:00,48.7,34.2,29.83,NNW,337,5.2,13.1,57,0.00,,OVC,0.00,WUHU21623XXSP,2013-01-06 13:48:00,
2013-01-06 15:53:00,48.9,33.9,29.83,NNE,22,1.4,13.1,56,0.00,,OVC,0.00,WUHU21623XXSP,2013-01-06 13:53:00,
2013-01-06 15:58:00,48.9,33.0,29.83,NE,45,5.6,14.5,54,0.00,,OVC,0.00,WUHU21623XXSP,2013-01-06 13:58:00,
2013-01-06 16:03:00,48.7,32.8,29.84,NE,45,13.5,18.9,54,0.00,,OVC,0.00,WUHU21623XXSP,2013-01-06 14:03:00,
2013-01-06 16:08:00,48.6,32.2,29.84,NNE,22,15.7,18.9,53,0.00,,OVC,0.00,WUHU21623XXSP,2013-01-06 14:08:00,
2013-01-06 16:13:00,48.6,33.2,29.84,NNE,22,0.0,18.5,55,0.00,,OVC,0.00,WUHU21623XXSP,2013-01-06 14:13:00,
2013-01-06 16:18:00,48.4,33.0,29.84,West,270,1.2,15.7,55,0.00,,OVC,0.00,WUHU21623XXSP,2013-01-06 14:18:00,
2013-01-06 16:23:00,48.4,33.0,29.84,NE,45,1.4,8.4,55,0.00,,SCT,0.00,WUHU21623XXSP,2013-01-06 14:23:00,
2013-01-06 16:28:00,48.6,33.2,29.84,NNE,22,0.0,8.4,55,0.00,,SCT,0.00,WUHU21623XXSP,2013-01-06 14:28:00,
2013-01-06 16:33:00,48.4,33.5,29.85,NNW,337,0.0,6.6,56,0.00,,SCT,0.00,WUHU21623XXSP,2013-01-06 14:33:00,
2013-01-06 16:38:00,48.2,32.8,29.85,SSW,202,6.9,8.1,55,0.00,,SCT,0.00,WUHU21623XXSP,2013-01-06 14:38:00,
2013-01-06 16:43:00,47.8,32.4,29.84,NW,315,6.9,15.5,55,0.00,,SCT,0.00,WUHU21623XXSP,2013-01-06 14:43:00,
2013-01-06 16:48:00,47.8,32.4,29.84,NW,315,2.2,15.5,55,0.00,,SCT,0.00,WUHU21623XXSP,2013-01-06 14:48:00,
2013-01-06 16:53:00,47.7,32.4,29.84,North,0,3.2,12.3,55,0.00,,SCT,0.00,WUHU21623XXSP,2013-01-06 14:53:00,
2013-01-06 16:58:00,47.3,32.4,29.84,SE,135,0.0,12.3,56,0.00,,SCT,0.00,WUHU21623XXSP,2013-01-06 14:58:00,
2013-01-06 17:03:00,47.3,32.4,29.85,NE,45,0.0,8.4,56,0.00,,SCT,0.00,WUHU21623XXSP,2013-01-06 15:03:00,
2013-01-06 17:08:00,47.1,32.7,29.85,North,0,3.0,6.2,57,0.00,,SCT,0.00,WUHU21623XXSP,2013-01-06 15:08:00,
2013-01-06 17:13:00,46.9,32.5,29.85,NNE,22,1.8,7.9,57,0.00,,SCT,0.00,WUHU21623XXSP,2013-01-06 15:13:00,
2013-01-06 17:18:00,46.6,32.7,29.85,North,0,0.0,7.9,58,0.00,,SCT,0.00,WUHU21623XXSP,2013-01-06 15:18:00,
2013-01-06 17:23:00,46.6,32.7,29.85,NW,315,5.6,8.1,58,0.00,,SCT,0.00,WUHU21623XXSP,2013-01-06 15:23:00,
2013-01-06 17:28:00,46.9,32.5,29.85,NW,315,0.0,8.1,57,0.00,,SCT,0.00,WUHU21623XXSP,2013-01-06 15:28:00,
2013-01-06 17:33:00,46.9,32.1,29.85,NW,315,0.0,5.2,56,0.00,,SCT,0.00,WUHU21623XXSP,2013-01-06 15:33:00,
2013-01-06 17:38:00,46.8,32.4,29.85,North,0,0.0,4.9,57,0.00,,SCT,0.00,WUHU21623XXSP,2013-01-06 15:38:00,
2013-01-06 17:43:00,46.6,32.2,29.86,NNE,22,0.0,3.4,57,0.00,,SCT,0.00,WUHU21623XXSP,2013-01-06 15:43:00,
2013-01-06 17:48:00,46.4,32.0,29.86,NE,45,0.0,3.4,57,0.00,,SCT,0.00,WUHU21623XXSP,2013-01-06 15:48:00,
2013-01-06 17:53:00,46.2,31.9,29.86,NNE,22,0.0,5.4,57,0.00,,SCT,0.00,WUHU21623XXSP,2013-01-06 15:53:00,
2013-01-06 17:58:00,46.6,33.1,29.86,ESE,112,0.0,5.6,59,0.00,,SCT,0.00,WUHU21623XXSP,2013-01-06 15:58:00,
2013-01-06 18:03:00,46.2,33.6,29.87,NE,45,0.0,11.1,61,0.00,,SCT,0.00,WUHU21623XXSP,2013-01-06 16:03:00,
2013-01-06 18:08:00,45.5,34.5,29.87,SSE,157,0.0,11.1,65,0.00,,SCT,0.00,WUHU21623XXSP,2013-01-06 16:08:00,
2013-01-06 18:13:00,45.1,35.3,29.88,ENE,67,0.0,8.4,68,0.00,,SCT,0.00,WUHU21623XXSP,2013-01-06 16:13:00,
2013-01-06 18:18:00,44.8,35.7,29.87,ENE,67,0.0,7.4,70,0.00,,SCT,0.00,WUHU21623XXSP,2013-01-06 16:18:00,
2013-01-06 18:23:00,44.4,35.7,29.87,ESE,112,13.3,13.3,71,0.00,,SCT,0.00,WUHU21623XXSP,2013-01-06 16:23:00,
2013-01-06 18:28:00,44.2,35.8,29.87,SE,135,0.0,13.3,72,0.00,,SCT,0.00,WUHU21623XXSP,2013-01-06 16:28:00,
2013-01-06 18:33:00,44.2,36.2,29.88,ENE,67,3.4,11.3,73,0.00,,SCT,0.00,WUHU21623XXSP,2013-01-06 16:33:00,
2013-01-06 18:38:00,44.2,36.2,29.88,SE,135,2.8,15.0,73,0.00,,SCT,0.00,WUHU21623XXSP,2013-01-06 16:38:00,
2013-01-06 18:43:00,44.2,36.2,29.88,NNE,22,0.0,15.0,73,0.00,,SCT,0.00,WUHU21623XXSP,2013-01-06 16:43:00,
2013-01-06 18:48:00,44.2,36.2,29.88,ESE,112,9.6,12.5,73,0.00,,SCT,0.00,WUHU21623XXSP,2013-01-06 16:48:00,
2013-01-06 18:53:00,44.1,36.1,29.88,NE,45,0.0,12.5,73,0.00,,SCT,0.00,WUHU21623XXSP,2013-01-06 16:53:00,
2013-01-06 18:58:00,43.9,35.5,29.89,ENE,67,8.9,17.3,72,0.00,,SCT,0.00,WUHU21623XXSP,2013-01-06 16:58:00,
2013-01-06 19:03:00,43.7,35.3,29.88,ESE,112,0.0,17.3,72,0.00,,SCT,0.00,WUHU21623XXSP,2013-01-06 17:03:00,
2013-01-06 19:08:00,43.5,35.5,29.89,East,90,0.0,14.1,73,0.00,,SCT,0.00,WUHU21623XXSP,2013-01-06 17:08:00,
2013-01-06 19:13:00,43.5,35.8,29.89,ENE,67,4.7,14.1,74,0.00,,SCT,0.00,WUHU21623XXSP,2013-01-06 17:13:00,
2013-01-06 19:18:00,43.2,35.5,29.89,East,90,5.9,11.3,74,0.00,,SCT,0.00,WUHU21623XXSP,2013-01-06 17:18:00,
2013-01-06 19:23:00,43.0,35.7,29.89,NNW,337,0.0,12.5,75,0.00,,SCT,0.00,WUHU21623XXSP,2013-01-06 17:23:00,
2013-01-06 19:28:00,42.8,35.5,29.89,NNW,337,12.3,12.8,75,0.00,,SCT,0.00,WUHU21623XXSP,2013-01-06 17:28:00,
2013-01-06 19:33:00,42.6,35.3,29.90,East,90,4.9,13.5,75,0.00,,SCT,0.00,WUHU21623XXSP,2013-01-06 17:33:00,
2013-01-06 19:38:00,42.4,35.1,29.90,NE,45,10.6,13.5,75,0.00,,SCT,0.00,WUHU21623XXSP,2013-01-06 17:38:00,
2013-01-06 19:43:00,42.4,35.1,29.91,NNE,22,1.0,11.6,75,0.00,,SCT,0.00,WUHU21623XXSP,2013-01-06 17:43:00,
2013-01-06 19:48:00,42.4,35.1,29.90,NNE,22,4.2,10.8,75,0.00,,SCT,0.00,WUHU21623XXSP,2013-01-06 17:48:00,
2013-01-06 19:53:00,42.4,35.1,29.90,NNW,337,0.0,5.6,75,0.00,,SCT,0.00,WUHU21623XXSP,2013-01-06 17:53:00,
2013-01-06 19:58:00,42.4,35.4,29.91,North,0,0.0,5.6,76,0.00,,SCT,0.00,WUHU21623XXSP,2013-01-06 17:58:00,
2013-01-06 20:03:00,42.4,35.1,29.91,North,0,2.4,5.6,75,0.00,,SCT,0.00,WUHU21623XXSP,2013-01-06 18:03:00,
2013-01-06 20:08:00,43.2,35.5,29.90,ESE,112,0.0,5.6,74,0.00,,SCT,0.00,WUHU21623XXSP,2013-01-06 18:08:00,
2013-01-06 20:13:00,43.0,35.0,29.91,North,0,0.0,5.4,73,0.00,,SCT,0.00,WUHU21623XXSP,2013-01-06 18:13:00,
2013-01-06 20:15:00,43.2,35.2,29.91,ESE,112,0.0,5.4,73,0.00,,SCT,0.00,WUHU21623XXSP,2013-01-06 18:15:00,
2013-01-06 20:28:00,43.3,34.6,29.91,NW,315,0.0,0.0,71,0.00,,SCT,0.00,WUHU21623XXSP,2013-01-06 18:28:00,
2013-01-06 21:34:00,44.2,32.1,29.90,NW,315,0.0,0.0,62,0.00,,SCT,0.00,WUHU21623XXSP,2013-01-06 19:34:00,
2013-01-06 21:39:00,44.2,30.8,29.90,NNW,337,0.0,5.9,59,0.00,,SCT,0.00,WUHU21623XXSP,2013-01-06 19:39:00,
2013-01-06 21:44:00,44.6,31.6,29.90,SSW,202,0.0,6.2,60,0.00,,SCT,0.00,WUHU21623XXSP,2013-01-06 19:44:00,
2013-01-06 21:50:00,44.6,31.6,29.90,South,180,0.0,6.2,60,0.00,,SCT,0.00,WUHU21623XXSP,2013-01-06 19:50:00,
2013-01-06 21:55:00,44.2,31.3,29.89,East,90,0.0,4.9,60,0.00,,SCT,0.00,WUHU21623XXSP,2013-01-06 19:55:00,
2013-01-06 22:00:00,44.2,31.3,29.89,SSE,157,0.0,4.9,60,0.00,,SCT,0.00,WUHU21623XXSP,2013-01-06 20:00:00,
2013-01-06 22:05:00,43.9,31.0,29.89,ESE,112,0.0,4.0,60,0.00,,SCT,0.00,WUHU21623XXSP,2013-01-06 20:05:00,
2013-01-06 22:10:00,43.9,31.0,29.90,NW,315,0.0,6.4,60,0.00,,SCT,0.00,WUHU21623XXSP,2013-01-06 20:10:00,
2013-01-06 22:11:00,43.9,31.0,29.90,WSW,247,0.0,6.4,60,0.00,,SCT,0.00,WUHU21623XXSP,2013-01-06 20:11:00,
2013-01-06 22:13:00,43.9,31.0,29.89,South,180,0.0,6.4,60,0.00,,SCT,0.00,WUHU21623XXSP,2013-01-06 20:13:00,
2013-01-06 22:18:00,43.7,30.8,29.89,SE,135,0.0,3.0,60,0.00,,SCT,0.00,WUHU21623XXSP,2013-01-06 20:18:00,
2013-01-06 22:23:00,43.7,31.2,29.89,South,180,0.0,3.0,61,0.00,,SCT,0.00,WUHU21623XXSP,2013-01-06 20:23:00,
2013-01-06 22:28:00,43.5,31.0,29.89,ESE,112,0.0,4.4,61,0.00,,SCT,0.00,WUHU21623XXSP,2013-01-06 20:28:00,
2013-01-06 22:33:00,43.5,30.6,29.89,SE,135,0.0,9.4,60,0.00,,SCT,0.00,WUHU21623XXSP,2013-01-06 20:33:00,
2013-01-06 22:38:00,43.5,31.0,29.88,NNE,22,2.8,9.4,61,0.00,,SCT,0.00,WUHU21623XXSP,2013-01-06 20:38:00,
2013-01-06 22:43:00,43.5,31.0,29.88,North,0,0.0,6.4,61,0.00,,SCT,0.00,WUHU21623XXSP,2013-01-06 20:43:00,
2013-01-06 22:48:00,43.7,30.8,29.88,NNW,337,1.0,11.3,60,0.00,,SCT,0.00,WUHU21623XXSP,2013-01-06 20:48:00,
2013-01-06 22:53:00,43.7,30.8,29.88,SW,225,2.0,11.3,60,0.00,,SCT,0.00,WUHU21623XXSP,2013-01-06 20:53:00,
2013-01-06 22:58:00,43.7,30.8,29.89,SSW,202,0.0,4.7,60,0.00,,SCT,0.00,WUHU21623XXSP,2013-01-06 20:58:00,
2013-01-06 23:01:00,43.7,30.4,29.89,NW,315,0.0,3.4,59,0.00,,SCT,0.00,WUHU21623XXSP,2013-01-06 21:01:00,
2013-01-06 23:06:00,43.5,30.6,29.89,SW,225,0.0,4.4,60,0.00,,SCT,0.00,WUHU21623XXSP,2013-01-06 21:06:00,
2013-01-06 23:11:00,43.3,30.4,29.89,WNW,292,0.0,5.2,60,0.00,,SCT,0.00,WUHU21623XXSP,2013-01-06 21:11:00,
2013-01-06 23:16:00,43.3,30.4,29.89,WSW,247,0.0,6.9,60,0.00,,SCT,0.00,WUHU21623XXSP,2013-01-06 21:16:00,
2013-01-06 23:21:00,43.5,30.2,29.89,NW,315,0.0,6.9,59,0.00,,SCT,0.00,WUHU21623XXSP,2013-01-06 21:21:00,
2013-01-06 23:26:00,43.7,30.4,29.89,SW,225,0.0,3.7,59,0.00,,SCT,0.00,WUHU21623XXSP,2013-01-06 21:26:00,
2013-01-06 23:31:00,43.5,30.2,29.89,SW,225,0.0,1.4,59,0.00,,SCT,0.00,WUHU21623XXSP,2013-01-06 21:31:00,
2013-01-06 23:36:00,43.3,30.0,29.90,WSW,247,0.0,1.0,59,0.00,,SCT,0.00,WUHU21623XXSP,2013-01-06 21:36:00,
2013-01-06 23:41:00,43.2,29.9,29.89,NW,315,0.0,1.0,59,0.00,,SCT,0.00,WUHU21623XXSP,2013-01-06 21:41:00,
2013-01-06 23:46:00,43.3,30.0,29.89,WNW,292,0.0,2.4,59,0.00,,SCT,0.00,WUHU21623XXSP,2013-01-06 21:46:00,
2013-01-06 23:51:00,43.5,29.8,29.90,West,270,0.0,4.2,58,0.00,,SCT,0.00,WUHU21623XXSP,2013-01-06 21:51:00,
2013-01-06 23:56:00,43.7,29.5,29.89,WSW,247,0.0,4.2,57,0.00,,SCT,0.00,WUHU21623XXSP,2013-01-06 21:56:00,